sensor_id;sensor_type;location;lat;lon;timestamp;P1;durP1;ratioP1;P2;durP2;ratioP2
83558;SDS011;73527;47.882;7.718;2024-03-08T00:00:13;19.00;;;8.88;;
83558;SDS011;73527;47.882;7.718;2024-03-08T00:02:40;16.85;;;8.88;;
83558;SDS011;73527;47.882;7.718;2024-03-08T00:05:07;19.40;;;8.43;;
83558;SDS011;73527;47.882;7.718;2024-03-08T00:07:37;21.48;;;8.82;;
83558;SDS011;73527;47.882;7.718;2024-03-08T00:10:03;18.70;;;7.82;;
83558;SDS011;73527;47.882;7.718;2024-03-08T00:12:30;20.20;;;9.35;;
83558;SDS011;73527;47.882;7.718;2024-03-08T00:14:56;20.08;;;9.45;;
83558;SDS011;73527;47.882;7.718;2024-03-08T00:17:21;17.45;;;8.13;;
83558;SDS011;73527;47.882;7.718;2024-03-08T00:19:50;20.50;;;9.18;;
83558;SDS011;73527;47.882;7.718;2024-03-08T00:22:16;20.42;;;9.35;;
83558;SDS011;73527;47.882;7.718;2024-03-08T00:24:42;18.55;;;9.10;;
83558;SDS011;73527;47.882;7.718;2024-03-08T00:27:07;15.73;;;8.50;;
83558;SDS011;73527;47.882;7.718;2024-03-08T00:29:34;18.05;;;8.50;;
83558;SDS011;73527;47.882;7.718;2024-03-08T00:31:59;20.33;;;10.05;;
83558;SDS011;73527;47.882;7.718;2024-03-08T00:34:24;17.10;;;9.07;;
83558;SDS011;73527;47.882;7.718;2024-03-08T00:36:50;17.23;;;9.45;;
83558;SDS011;73527;47.882;7.718;2024-03-08T00:39:16;17.35;;;7.97;;
83558;SDS011;73527;47.882;7.718;2024-03-08T00:41:42;16.25;;;7.85;;
83558;SDS011;73527;47.882;7.718;2024-03-08T00:44:09;21.40;;;9.48;;
83558;SDS011;73527;47.882;7.718;2024-03-08T00:46:35;17.85;;;8.63;;
83558;SDS011;73527;47.882;7.718;2024-03-08T00:49:00;20.45;;;9.07;;
83558;SDS011;73527;47.882;7.718;2024-03-08T00:51:26;21.23;;;9.27;;
83558;SDS011;73527;47.882;7.718;2024-03-08T00:53:51;19.45;;;8.82;;
83558;SDS011;73527;47.882;7.718;2024-03-08T00:56:17;18.10;;;9.45;;
83558;SDS011;73527;47.882;7.718;2024-03-08T00:58:42;19.25;;;8.50;;
83558;SDS011;73527;47.882;7.718;2024-03-08T01:01:07;18.67;;;9.40;;
83558;SDS011;73527;47.882;7.718;2024-03-08T01:03:34;16.40;;;9.18;;
83558;SDS011;73527;47.882;7.718;2024-03-08T01:06:00;19.00;;;8.57;;
83558;SDS011;73527;47.882;7.718;2024-03-08T01:08:26;20.90;;;9.30;;
83558;SDS011;73527;47.882;7.718;2024-03-08T01:10:52;19.90;;;9.88;;
83558;SDS011;73527;47.882;7.718;2024-03-08T01:13:18;21.23;;;9.48;;
83558;SDS011;73527;47.882;7.718;2024-03-08T01:15:44;22.70;;;9.40;;
83558;SDS011;73527;47.882;7.718;2024-03-08T01:18:10;20.25;;;9.25;;
83558;SDS011;73527;47.882;7.718;2024-03-08T01:20:35;17.27;;;8.40;;
83558;SDS011;73527;47.882;7.718;2024-03-08T01:23:01;17.83;;;8.93;;
83558;SDS011;73527;47.882;7.718;2024-03-08T01:25:26;18.63;;;9.05;;
83558;SDS011;73527;47.882;7.718;2024-03-08T01:27:52;20.10;;;9.52;;
83558;SDS011;73527;47.882;7.718;2024-03-08T01:30:19;18.83;;;9.93;;
83558;SDS011;73527;47.882;7.718;2024-03-08T01:32:44;19.67;;;8.35;;
83558;SDS011;73527;47.882;7.718;2024-03-08T01:35:10;19.73;;;9.40;;
83558;SDS011;73527;47.882;7.718;2024-03-08T01:37:35;19.95;;;9.15;;
83558;SDS011;73527;47.882;7.718;2024-03-08T01:40:01;15.98;;;8.25;;
83558;SDS011;73527;47.882;7.718;2024-03-08T01:42:28;18.58;;;8.55;;
83558;SDS011;73527;47.882;7.718;2024-03-08T01:44:54;20.52;;;9.82;;
83558;SDS011;73527;47.882;7.718;2024-03-08T01:47:19;15.80;;;7.55;;
83558;SDS011;73527;47.882;7.718;2024-03-08T01:49:48;17.58;;;7.45;;
83558;SDS011;73527;47.882;7.718;2024-03-08T01:52:15;18.38;;;7.60;;
83558;SDS011;73527;47.882;7.718;2024-03-08T01:54:41;19.13;;;7.70;;
83558;SDS011;73527;47.882;7.718;2024-03-08T01:57:06;17.95;;;8.52;;
83558;SDS011;73527;47.882;7.718;2024-03-08T01:59:32;17.00;;;9.10;;
83558;SDS011;73527;47.882;7.718;2024-03-08T02:02:00;19.40;;;9.43;;
83558;SDS011;73527;47.882;7.718;2024-03-08T02:04:27;23.00;;;10.25;;
83558;SDS011;73527;47.882;7.718;2024-03-08T02:06:55;21.98;;;9.95;;
83558;SDS011;73527;47.882;7.718;2024-03-08T02:09:23;18.13;;;8.98;;
83558;SDS011;73527;47.882;7.718;2024-03-08T02:11:50;19.17;;;9.15;;
83558;SDS011;73527;47.882;7.718;2024-03-08T02:14:16;17.95;;;7.80;;
83558;SDS011;73527;47.882;7.718;2024-03-08T02:19:07;23.93;;;10.40;;
83558;SDS011;73527;47.882;7.718;2024-03-08T02:21:34;25.02;;;9.57;;
83558;SDS011;73527;47.882;7.718;2024-03-08T02:26:26;20.27;;;8.63;;
83558;SDS011;73527;47.882;7.718;2024-03-08T02:28:52;14.40;;;7.40;;
83558;SDS011;73527;47.882;7.718;2024-03-08T02:31:18;19.23;;;8.32;;
83558;SDS011;73527;47.882;7.718;2024-03-08T02:33:44;21.20;;;8.43;;
83558;SDS011;73527;47.882;7.718;2024-03-08T02:36:12;19.02;;;8.75;;
83558;SDS011;73527;47.882;7.718;2024-03-08T02:38:38;19.92;;;9.30;;
83558;SDS011;73527;47.882;7.718;2024-03-08T02:41:05;21.83;;;9.68;;
83558;SDS011;73527;47.882;7.718;2024-03-08T02:43:31;18.98;;;8.90;;
83558;SDS011;73527;47.882;7.718;2024-03-08T02:45:56;22.35;;;8.73;;
83558;SDS011;73527;47.882;7.718;2024-03-08T02:48:22;19.33;;;8.57;;
83558;SDS011;73527;47.882;7.718;2024-03-08T02:50:47;20.35;;;7.90;;
83558;SDS011;73527;47.882;7.718;2024-03-08T02:53:13;18.67;;;8.73;;
83558;SDS011;73527;47.882;7.718;2024-03-08T02:55:39;16.33;;;9.02;;
83558;SDS011;73527;47.882;7.718;2024-03-08T02:58:06;20.95;;;10.13;;
83558;SDS011;73527;47.882;7.718;2024-03-08T03:00:35;22.02;;;8.95;;
83558;SDS011;73527;47.882;7.718;2024-03-08T03:03:00;19.83;;;9.02;;
83558;SDS011;73527;47.882;7.718;2024-03-08T03:05:28;20.38;;;9.15;;
83558;SDS011;73527;47.882;7.718;2024-03-08T03:07:54;17.02;;;8.57;;
83558;SDS011;73527;47.882;7.718;2024-03-08T03:10:20;21.90;;;9.60;;
83558;SDS011;73527;47.882;7.718;2024-03-08T03:12:48;20.95;;;8.23;;
83558;SDS011;73527;47.882;7.718;2024-03-08T03:15:14;23.25;;;8.80;;
83558;SDS011;73527;47.882;7.718;2024-03-08T03:17:39;23.40;;;9.43;;
83558;SDS011;73527;47.882;7.718;2024-03-08T03:20:08;18.70;;;8.45;;
83558;SDS011;73527;47.882;7.718;2024-03-08T03:22:39;17.15;;;8.40;;
83558;SDS011;73527;47.882;7.718;2024-03-08T03:25:12;19.35;;;7.85;;
83558;SDS011;73527;47.882;7.718;2024-03-08T03:27:37;20.15;;;8.70;;
83558;SDS011;73527;47.882;7.718;2024-03-08T03:30:04;19.52;;;8.48;;
83558;SDS011;73527;47.882;7.718;2024-03-08T03:32:50;17.55;;;8.57;;
83558;SDS011;73527;47.882;7.718;2024-03-08T03:35:19;20.27;;;8.98;;
83558;SDS011;73527;47.882;7.718;2024-03-08T03:37:46;20.45;;;8.77;;
83558;SDS011;73527;47.882;7.718;2024-03-08T03:40:26;18.65;;;9.00;;
83558;SDS011;73527;47.882;7.718;2024-03-08T03:45:17;20.27;;;8.17;;
83558;SDS011;73527;47.882;7.718;2024-03-08T03:47:45;17.25;;;8.68;;
83558;SDS011;73527;47.882;7.718;2024-03-08T03:50:10;18.17;;;8.70;;
83558;SDS011;73527;47.882;7.718;2024-03-08T03:52:36;20.27;;;9.32;;
83558;SDS011;73527;47.882;7.718;2024-03-08T03:55:01;23.20;;;9.77;;
83558;SDS011;73527;47.882;7.718;2024-03-08T03:57:29;16.23;;;8.75;;
83558;SDS011;73527;47.882;7.718;2024-03-08T03:59:55;18.10;;;8.73;;
83558;SDS011;73527;47.882;7.718;2024-03-08T04:02:20;16.42;;;7.47;;
83558;SDS011;73527;47.882;7.718;2024-03-08T04:04:46;18.67;;;7.82;;
83558;SDS011;73527;47.882;7.718;2024-03-08T04:07:12;20.50;;;8.77;;
83558;SDS011;73527;47.882;7.718;2024-03-08T04:09:38;19.35;;;8.45;;
83558;SDS011;73527;47.882;7.718;2024-03-08T04:12:04;16.08;;;7.45;;
83558;SDS011;73527;47.882;7.718;2024-03-08T04:14:29;19.10;;;8.40;;
83558;SDS011;73527;47.882;7.718;2024-03-08T04:16:55;19.05;;;8.95;;
83558;SDS011;73527;47.882;7.718;2024-03-08T04:19:20;14.98;;;7.00;;
83558;SDS011;73527;47.882;7.718;2024-03-08T04:21:45;14.90;;;7.25;;
83558;SDS011;73527;47.882;7.718;2024-03-08T04:24:12;21.55;;;9.23;;
83558;SDS011;73527;47.882;7.718;2024-03-08T04:26:37;18.95;;;8.52;;
83558;SDS011;73527;47.882;7.718;2024-03-08T04:29:03;23.17;;;9.45;;
83558;SDS011;73527;47.882;7.718;2024-03-08T04:31:28;16.00;;;8.07;;
83558;SDS011;73527;47.882;7.718;2024-03-08T04:33:56;19.30;;;9.10;;
83558;SDS011;73527;47.882;7.718;2024-03-08T04:36:21;16.30;;;8.65;;
83558;SDS011;73527;47.882;7.718;2024-03-08T04:38:47;18.20;;;9.02;;
83558;SDS011;73527;47.882;7.718;2024-03-08T04:41:12;17.65;;;8.30;;
83558;SDS011;73527;47.882;7.718;2024-03-08T04:43:37;16.58;;;8.27;;
83558;SDS011;73527;47.882;7.718;2024-03-08T04:48:30;18.00;;;8.02;;
83558;SDS011;73527;47.882;7.718;2024-03-08T04:50:56;17.13;;;7.75;;
83558;SDS011;73527;47.882;7.718;2024-03-08T04:53:21;17.83;;;7.20;;
83558;SDS011;73527;47.882;7.718;2024-03-08T04:55:47;18.02;;;9.18;;
83558;SDS011;73527;47.882;7.718;2024-03-08T04:58:12;19.42;;;8.48;;
83558;SDS011;73527;47.882;7.718;2024-03-08T05:00:37;17.42;;;8.27;;
83558;SDS011;73527;47.882;7.718;2024-03-08T05:03:03;19.73;;;9.23;;
83558;SDS011;73527;47.882;7.718;2024-03-08T05:05:30;19.85;;;9.15;;
83558;SDS011;73527;47.882;7.718;2024-03-08T05:07:59;18.90;;;8.10;;
83558;SDS011;73527;47.882;7.718;2024-03-08T05:10:26;17.95;;;8.68;;
83558;SDS011;73527;47.882;7.718;2024-03-08T05:12:51;15.45;;;8.48;;
83558;SDS011;73527;47.882;7.718;2024-03-08T05:15:17;16.58;;;7.55;;
83558;SDS011;73527;47.882;7.718;2024-03-08T05:17:42;17.33;;;8.25;;
83558;SDS011;73527;47.882;7.718;2024-03-08T05:20:08;21.08;;;9.05;;
83558;SDS011;73527;47.882;7.718;2024-03-08T05:22:37;17.98;;;9.25;;
83558;SDS011;73527;47.882;7.718;2024-03-08T05:25:03;16.15;;;8.45;;
83558;SDS011;73527;47.882;7.718;2024-03-08T05:27:28;18.77;;;8.75;;
83558;SDS011;73527;47.882;7.718;2024-03-08T05:29:53;19.58;;;8.30;;
83558;SDS011;73527;47.882;7.718;2024-03-08T05:32:19;20.52;;;7.88;;
83558;SDS011;73527;47.882;7.718;2024-03-08T05:34:44;20.27;;;8.70;;
83558;SDS011;73527;47.882;7.718;2024-03-08T05:37:09;18.58;;;8.20;;
83558;SDS011;73527;47.882;7.718;2024-03-08T05:42:01;17.83;;;7.50;;
83558;SDS011;73527;47.882;7.718;2024-03-08T05:44:26;16.50;;;8.25;;
83558;SDS011;73527;47.882;7.718;2024-03-08T05:46:53;18.38;;;8.38;;
83558;SDS011;73527;47.882;7.718;2024-03-08T05:49:19;16.92;;;7.57;;
83558;SDS011;73527;47.882;7.718;2024-03-08T05:51:44;18.40;;;8.15;;
83558;SDS011;73527;47.882;7.718;2024-03-08T05:54:10;15.32;;;7.85;;
83558;SDS011;73527;47.882;7.718;2024-03-08T05:56:37;15.32;;;6.88;;
83558;SDS011;73527;47.882;7.718;2024-03-08T05:59:03;14.90;;;7.10;;
83558;SDS011;73527;47.882;7.718;2024-03-08T06:01:29;18.02;;;8.48;;
83558;SDS011;73527;47.882;7.718;2024-03-08T06:03:56;18.92;;;7.80;;
83558;SDS011;73527;47.882;7.718;2024-03-08T06:06:22;19.75;;;9.05;;
83558;SDS011;73527;47.882;7.718;2024-03-08T06:08:49;16.52;;;7.32;;
83558;SDS011;73527;47.882;7.718;2024-03-08T06:11:15;17.40;;;8.95;;
83558;SDS011;73527;47.882;7.718;2024-03-08T06:13:44;22.35;;;10.02;;
83558;SDS011;73527;47.882;7.718;2024-03-08T06:16:10;18.50;;;9.02;;
83558;SDS011;73527;47.882;7.718;2024-03-08T06:18:35;20.40;;;9.05;;
83558;SDS011;73527;47.882;7.718;2024-03-08T06:21:02;20.98;;;9.00;;
83558;SDS011;73527;47.882;7.718;2024-03-08T06:23:30;19.40;;;9.10;;
83558;SDS011;73527;47.882;7.718;2024-03-08T06:25:56;21.48;;;9.05;;
83558;SDS011;73527;47.882;7.718;2024-03-08T06:30:49;19.20;;;8.40;;
83558;SDS011;73527;47.882;7.718;2024-03-08T06:33:16;21.80;;;9.73;;
83558;SDS011;73527;47.882;7.718;2024-03-08T06:35:41;17.20;;;8.30;;
83558;SDS011;73527;47.882;7.718;2024-03-08T06:38:07;17.25;;;8.20;;
83558;SDS011;73527;47.882;7.718;2024-03-08T06:40:32;22.85;;;10.07;;
83558;SDS011;73527;47.882;7.718;2024-03-08T06:42:57;16.70;;;9.05;;
83558;SDS011;73527;47.882;7.718;2024-03-08T06:45:23;16.02;;;7.88;;
83558;SDS011;73527;47.882;7.718;2024-03-08T06:47:48;19.65;;;10.95;;
83558;SDS011;73527;47.882;7.718;2024-03-08T06:50:14;19.17;;;9.30;;
83558;SDS011;73527;47.882;7.718;2024-03-08T06:52:40;21.17;;;9.10;;
83558;SDS011;73527;47.882;7.718;2024-03-08T06:55:07;19.20;;;8.63;;
83558;SDS011;73527;47.882;7.718;2024-03-08T06:57:37;19.35;;;8.60;;
83558;SDS011;73527;47.882;7.718;2024-03-08T07:00:05;18.48;;;8.95;;
83558;SDS011;73527;47.882;7.718;2024-03-08T07:02:34;20.17;;;10.13;;
83558;SDS011;73527;47.882;7.718;2024-03-08T07:05:00;14.82;;;8.85;;
83558;SDS011;73527;47.882;7.718;2024-03-08T07:07:26;19.58;;;8.77;;
83558;SDS011;73527;47.882;7.718;2024-03-08T07:09:52;18.15;;;9.40;;
83558;SDS011;73527;47.882;7.718;2024-03-08T07:12:17;16.33;;;8.30;;
83558;SDS011;73527;47.882;7.718;2024-03-08T07:14:42;16.75;;;8.20;;
83558;SDS011;73527;47.882;7.718;2024-03-08T07:17:10;18.05;;;9.30;;
83558;SDS011;73527;47.882;7.718;2024-03-08T07:19:36;16.88;;;7.35;;
83558;SDS011;73527;47.882;7.718;2024-03-08T07:22:03;17.92;;;9.05;;
83558;SDS011;73527;47.882;7.718;2024-03-08T07:24:29;18.42;;;9.13;;
83558;SDS011;73527;47.882;7.718;2024-03-08T07:27:13;17.90;;;9.48;;
83558;SDS011;73527;47.882;7.718;2024-03-08T07:29:38;19.80;;;9.98;;
83558;SDS011;73527;47.882;7.718;2024-03-08T07:32:04;15.65;;;8.88;;
83558;SDS011;73527;47.882;7.718;2024-03-08T07:37:15;19.30;;;9.23;;
83558;SDS011;73527;47.882;7.718;2024-03-08T07:39:41;20.38;;;8.93;;
83558;SDS011;73527;47.882;7.718;2024-03-08T07:42:06;18.50;;;8.77;;
83558;SDS011;73527;47.882;7.718;2024-03-08T07:44:32;20.10;;;9.50;;
83558;SDS011;73527;47.882;7.718;2024-03-08T07:46:58;18.10;;;8.82;;
83558;SDS011;73527;47.882;7.718;2024-03-08T07:49:24;19.77;;;9.98;;
83558;SDS011;73527;47.882;7.718;2024-03-08T07:51:49;20.52;;;9.85;;
83558;SDS011;73527;47.882;7.718;2024-03-08T07:54:15;15.75;;;8.48;;
83558;SDS011;73527;47.882;7.718;2024-03-08T07:56:40;20.90;;;10.18;;
83558;SDS011;73527;47.882;7.718;2024-03-08T07:59:07;18.10;;;10.18;;
83558;SDS011;73527;47.882;7.718;2024-03-08T08:01:33;18.58;;;9.90;;
83558;SDS011;73527;47.882;7.718;2024-03-08T08:03:58;18.60;;;8.60;;
83558;SDS011;73527;47.882;7.718;2024-03-08T08:06:24;19.13;;;9.35;;
83558;SDS011;73527;47.882;7.718;2024-03-08T08:08:50;17.50;;;8.82;;
83558;SDS011;73527;47.882;7.718;2024-03-08T08:11:15;19.05;;;9.77;;
83558;SDS011;73527;47.882;7.718;2024-03-08T08:13:41;18.40;;;9.85;;
83558;SDS011;73527;47.882;7.718;2024-03-08T08:16:08;15.52;;;9.93;;
83558;SDS011;73527;47.882;7.718;2024-03-08T08:21:01;17.73;;;9.35;;
83558;SDS011;73527;47.882;7.718;2024-03-08T08:23:31;20.45;;;11.27;;
83558;SDS011;73527;47.882;7.718;2024-03-08T08:25:57;19.40;;;10.90;;
83558;SDS011;73527;47.882;7.718;2024-03-08T08:30:48;22.00;;;10.60;;
83558;SDS011;73527;47.882;7.718;2024-03-08T08:33:16;20.63;;;11.35;;
83558;SDS011;73527;47.882;7.718;2024-03-08T08:35:41;20.42;;;11.70;;
83558;SDS011;73527;47.882;7.718;2024-03-08T08:38:07;20.15;;;10.65;;
83558;SDS011;73527;47.882;7.718;2024-03-08T08:43:01;19.77;;;10.55;;
83558;SDS011;73527;47.882;7.718;2024-03-08T08:45:29;20.00;;;11.00;;
83558;SDS011;73527;47.882;7.718;2024-03-08T08:47:55;18.58;;;10.80;;
83558;SDS011;73527;47.882;7.718;2024-03-08T08:52:49;17.65;;;10.30;;
83558;SDS011;73527;47.882;7.718;2024-03-08T08:57:40;19.73;;;10.68;;
83558;SDS011;73527;47.882;7.718;2024-03-08T09:00:06;21.70;;;11.75;;
83558;SDS011;73527;47.882;7.718;2024-03-08T09:04:58;18.10;;;9.82;;
83558;SDS011;73527;47.882;7.718;2024-03-08T09:09:49;20.15;;;10.75;;
83558;SDS011;73527;47.882;7.718;2024-03-08T09:14:40;19.60;;;10.63;;
83558;SDS011;73527;47.882;7.718;2024-03-08T09:17:06;21.98;;;11.93;;
83558;SDS011;73527;47.882;7.718;2024-03-08T09:19:33;22.83;;;12.07;;
83558;SDS011;73527;47.882;7.718;2024-03-08T09:21:59;21.45;;;10.88;;
83558;SDS011;73527;47.882;7.718;2024-03-08T09:24:24;20.40;;;11.63;;
83558;SDS011;73527;47.882;7.718;2024-03-08T09:29:17;20.63;;;11.70;;
83558;SDS011;73527;47.882;7.718;2024-03-08T09:31:42;20.95;;;12.63;;
83558;SDS011;73527;47.882;7.718;2024-03-08T09:36:33;24.65;;;13.23;;
83558;SDS011;73527;47.882;7.718;2024-03-08T09:38:59;22.33;;;13.43;;
83558;SDS011;73527;47.882;7.718;2024-03-08T09:41:25;20.98;;;13.60;;
83558;SDS011;73527;47.882;7.718;2024-03-08T09:43:51;21.92;;;12.63;;
83558;SDS011;73527;47.882;7.718;2024-03-08T09:46:17;29.77;;;17.50;;
83558;SDS011;73527;47.882;7.718;2024-03-08T09:48:45;29.95;;;17.30;;
83558;SDS011;73527;47.882;7.718;2024-03-08T09:51:12;25.40;;;15.88;;
83558;SDS011;73527;47.882;7.718;2024-03-08T09:53:40;33.22;;;18.02;;
83558;SDS011;73527;47.882;7.718;2024-03-08T09:56:07;30.33;;;17.33;;
83558;SDS011;73527;47.882;7.718;2024-03-08T09:58:33;30.70;;;17.35;;
83558;SDS011;73527;47.882;7.718;2024-03-08T10:00:58;31.48;;;17.42;;
83558;SDS011;73527;47.882;7.718;2024-03-08T10:03:27;32.85;;;17.15;;
83558;SDS011;73527;47.882;7.718;2024-03-08T10:05:53;32.17;;;18.38;;
83558;SDS011;73527;47.882;7.718;2024-03-08T10:08:21;33.13;;;18.27;;
83558;SDS011;73527;47.882;7.718;2024-03-08T10:10:47;31.85;;;18.42;;
83558;SDS011;73527;47.882;7.718;2024-03-08T10:13:12;33.55;;;18.15;;
83558;SDS011;73527;47.882;7.718;2024-03-08T10:15:39;36.40;;;19.75;;
83558;SDS011;73527;47.882;7.718;2024-03-08T10:18:05;30.65;;;18.75;;
83558;SDS011;73527;47.882;7.718;2024-03-08T10:20:31;33.42;;;20.25;;
83558;SDS011;73527;47.882;7.718;2024-03-08T10:23:02;33.42;;;18.83;;
83558;SDS011;73527;47.882;7.718;2024-03-08T10:25:30;36.25;;;20.40;;
83558;SDS011;73527;47.882;7.718;2024-03-08T10:27:59;34.13;;;20.45;;
83558;SDS011;73527;47.882;7.718;2024-03-08T10:30:26;32.33;;;19.80;;
83558;SDS011;73527;47.882;7.718;2024-03-08T10:32:51;31.23;;;19.08;;
83558;SDS011;73527;47.882;7.718;2024-03-08T10:35:17;35.15;;;19.65;;
83558;SDS011;73527;47.882;7.718;2024-03-08T10:40:28;35.83;;;19.10;;
83558;SDS011;73527;47.882;7.718;2024-03-08T10:42:55;34.13;;;20.02;;
83558;SDS011;73527;47.882;7.718;2024-03-08T10:48:16;34.65;;;20.23;;
83558;SDS011;73527;47.882;7.718;2024-03-08T10:50:57;34.38;;;19.05;;
83558;SDS011;73527;47.882;7.718;2024-03-08T10:53:23;30.63;;;17.80;;
83558;SDS011;73527;47.882;7.718;2024-03-08T10:55:52;34.53;;;19.95;;
83558;SDS011;73527;47.882;7.718;2024-03-08T10:58:19;36.03;;;20.15;;
83558;SDS011;73527;47.882;7.718;2024-03-08T11:00:46;31.67;;;18.52;;
83558;SDS011;73527;47.882;7.718;2024-03-08T11:06:19;34.58;;;18.88;;
83558;SDS011;73527;47.882;7.718;2024-03-08T11:08:48;33.55;;;19.52;;
83558;SDS011;73527;47.882;7.718;2024-03-08T11:11:32;31.63;;;18.70;;
83558;SDS011;73527;47.882;7.718;2024-03-08T11:14:02;30.02;;;18.10;;
83558;SDS011;73527;47.882;7.718;2024-03-08T11:18:59;33.65;;;19.88;;
83558;SDS011;73527;47.882;7.718;2024-03-08T11:21:32;34.85;;;20.10;;
83558;SDS011;73527;47.882;7.718;2024-03-08T11:24:02;31.65;;;20.20;;
83558;SDS011;73527;47.882;7.718;2024-03-08T11:26:32;35.28;;;20.05;;
83558;SDS011;73527;47.882;7.718;2024-03-08T11:29:46;32.60;;;18.63;;
83558;SDS011;73527;47.882;7.718;2024-03-08T11:34:37;31.83;;;19.30;;
83558;SDS011;73527;47.882;7.718;2024-03-08T11:37:05;35.20;;;19.73;;
83558;SDS011;73527;47.882;7.718;2024-03-08T11:39:38;29.42;;;18.05;;
83558;SDS011;73527;47.882;7.718;2024-03-08T11:42:05;31.65;;;20.15;;
83558;SDS011;73527;47.882;7.718;2024-03-08T11:44:31;34.40;;;19.00;;
83558;SDS011;73527;47.882;7.718;2024-03-08T11:46:57;32.60;;;18.80;;
83558;SDS011;73527;47.882;7.718;2024-03-08T11:49:23;32.40;;;18.77;;
83558;SDS011;73527;47.882;7.718;2024-03-08T11:51:51;36.00;;;18.38;;
83558;SDS011;73527;47.882;7.718;2024-03-08T11:54:17;30.85;;;18.17;;
83558;SDS011;73527;47.882;7.718;2024-03-08T11:56:43;31.52;;;18.77;;
83558;SDS011;73527;47.882;7.718;2024-03-08T11:59:12;33.25;;;19.98;;
83558;SDS011;73527;47.882;7.718;2024-03-08T12:01:39;29.67;;;18.52;;
83558;SDS011;73527;47.882;7.718;2024-03-08T12:04:04;29.58;;;17.55;;
83558;SDS011;73527;47.882;7.718;2024-03-08T12:06:37;28.80;;;16.80;;
83558;SDS011;73527;47.882;7.718;2024-03-08T12:09:10;27.20;;;17.13;;
83558;SDS011;73527;47.882;7.718;2024-03-08T12:11:36;28.27;;;17.35;;
83558;SDS011;73527;47.882;7.718;2024-03-08T12:14:02;33.08;;;18.58;;
83558;SDS011;73527;47.882;7.718;2024-03-08T12:16:28;30.60;;;17.20;;
83558;SDS011;73527;47.882;7.718;2024-03-08T12:18:54;28.38;;;17.80;;
83558;SDS011;73527;47.882;7.718;2024-03-08T12:21:20;26.33;;;16.70;;
83558;SDS011;73527;47.882;7.718;2024-03-08T12:23:47;26.73;;;15.43;;
83558;SDS011;73527;47.882;7.718;2024-03-08T12:26:17;33.08;;;17.60;;
83558;SDS011;73527;47.882;7.718;2024-03-08T12:28:49;28.33;;;16.75;;
83558;SDS011;73527;47.882;7.718;2024-03-08T12:31:14;26.95;;;16.40;;
83558;SDS011;73527;47.882;7.718;2024-03-08T12:33:52;30.92;;;17.00;;
83558;SDS011;73527;47.882;7.718;2024-03-08T12:36:19;33.58;;;17.92;;
83558;SDS011;73527;47.882;7.718;2024-03-08T12:38:45;29.05;;;16.45;;
83558;SDS011;73527;47.882;7.718;2024-03-08T12:41:15;27.38;;;16.08;;
83558;SDS011;73527;47.882;7.718;2024-03-08T12:43:42;28.88;;;15.95;;
83558;SDS011;73527;47.882;7.718;2024-03-08T12:46:13;26.33;;;15.30;;
83558;SDS011;73527;47.882;7.718;2024-03-08T12:48:43;23.70;;;13.98;;
83558;SDS011;73527;47.882;7.718;2024-03-08T12:51:11;23.50;;;13.50;;
83558;SDS011;73527;47.882;7.718;2024-03-08T12:53:41;23.63;;;12.93;;
83558;SDS011;73527;47.882;7.718;2024-03-08T12:56:09;22.25;;;13.80;;
83558;SDS011;73527;47.882;7.718;2024-03-08T12:58:35;20.52;;;12.93;;
83558;SDS011;73527;47.882;7.718;2024-03-08T13:01:01;22.65;;;13.27;;
83558;SDS011;73527;47.882;7.718;2024-03-08T13:03:33;22.25;;;13.27;;
83558;SDS011;73527;47.882;7.718;2024-03-08T13:06:01;20.13;;;11.85;;
83558;SDS011;73527;47.882;7.718;2024-03-08T13:08:34;18.77;;;11.82;;
83558;SDS011;73527;47.882;7.718;2024-03-08T13:11:06;20.85;;;12.07;;
83558;SDS011;73527;47.882;7.718;2024-03-08T13:13:32;19.65;;;11.75;;
83558;SDS011;73527;47.882;7.718;2024-03-08T13:16:00;18.10;;;11.43;;
83558;SDS011;73527;47.882;7.718;2024-03-08T13:18:26;17.10;;;11.00;;
83558;SDS011;73527;47.882;7.718;2024-03-08T13:20:52;16.08;;;10.05;;
83558;SDS011;73527;47.882;7.718;2024-03-08T13:23:19;16.80;;;10.45;;
83558;SDS011;73527;47.882;7.718;2024-03-08T13:25:45;16.27;;;10.68;;
83558;SDS011;73527;47.882;7.718;2024-03-08T13:28:12;16.88;;;10.95;;
83558;SDS011;73527;47.882;7.718;2024-03-08T13:30:38;16.15;;;11.15;;
83558;SDS011;73527;47.882;7.718;2024-03-08T13:33:04;17.15;;;10.38;;
83558;SDS011;73527;47.882;7.718;2024-03-08T13:35:30;16.75;;;10.45;;
83558;SDS011;73527;47.882;7.718;2024-03-08T13:37:56;18.80;;;10.85;;
83558;SDS011;73527;47.882;7.718;2024-03-08T13:40:21;16.25;;;10.40;;
83558;SDS011;73527;47.882;7.718;2024-03-08T13:42:50;15.80;;;10.27;;
83558;SDS011;73527;47.882;7.718;2024-03-08T13:45:15;18.25;;;11.18;;
83558;SDS011;73527;47.882;7.718;2024-03-08T13:47:49;15.95;;;10.55;;
83558;SDS011;73527;47.882;7.718;2024-03-08T13:50:18;20.88;;;11.50;;
83558;SDS011;73527;47.882;7.718;2024-03-08T13:52:48;18.67;;;11.27;;
83558;SDS011;73527;47.882;7.718;2024-03-08T13:55:18;16.95;;;11.02;;
83558;SDS011;73527;47.882;7.718;2024-03-08T13:57:43;18.05;;;11.50;;
83558;SDS011;73527;47.882;7.718;2024-03-08T14:00:10;14.77;;;10.55;;
83558;SDS011;73527;47.882;7.718;2024-03-08T14:02:37;19.05;;;9.75;;
83558;SDS011;73527;47.882;7.718;2024-03-08T14:05:05;19.33;;;11.48;;
83558;SDS011;73527;47.882;7.718;2024-03-08T14:07:36;16.02;;;11.00;;
83558;SDS011;73527;47.882;7.718;2024-03-08T14:10:01;15.55;;;10.82;;
83558;SDS011;73527;47.882;7.718;2024-03-08T14:12:27;17.13;;;10.65;;
83558;SDS011;73527;47.882;7.718;2024-03-08T14:14:52;16.90;;;10.70;;
83558;SDS011;73527;47.882;7.718;2024-03-08T14:17:18;16.77;;;10.40;;
83558;SDS011;73527;47.882;7.718;2024-03-08T14:19:44;17.33;;;11.48;;
83558;SDS011;73527;47.882;7.718;2024-03-08T14:22:09;15.02;;;10.25;;
83558;SDS011;73527;47.882;7.718;2024-03-08T14:24:39;16.65;;;10.88;;
83558;SDS011;73527;47.882;7.718;2024-03-08T14:27:07;17.45;;;11.95;;
83558;SDS011;73527;47.882;7.718;2024-03-08T14:29:33;16.00;;;10.90;;
83558;SDS011;73527;47.882;7.718;2024-03-08T14:31:59;17.00;;;11.75;;
83558;SDS011;73527;47.882;7.718;2024-03-08T14:34:25;17.27;;;11.45;;
83558;SDS011;73527;47.882;7.718;2024-03-08T14:36:54;19.33;;;12.85;;
83558;SDS011;73527;47.882;7.718;2024-03-08T14:39:20;18.45;;;12.00;;
83558;SDS011;73527;47.882;7.718;2024-03-08T14:41:49;19.00;;;11.75;;
83558;SDS011;73527;47.882;7.718;2024-03-08T14:44:18;17.75;;;10.52;;
83558;SDS011;73527;47.882;7.718;2024-03-08T14:46:51;17.98;;;10.90;;
83558;SDS011;73527;47.882;7.718;2024-03-08T14:49:17;17.00;;;10.55;;
83558;SDS011;73527;47.882;7.718;2024-03-08T14:51:43;17.77;;;11.27;;
83558;SDS011;73527;47.882;7.718;2024-03-08T14:54:09;16.38;;;11.10;;
83558;SDS011;73527;47.882;7.718;2024-03-08T14:56:35;16.15;;;11.60;;
83558;SDS011;73527;47.882;7.718;2024-03-08T14:59:01;16.45;;;10.07;;
83558;SDS011;73527;47.882;7.718;2024-03-08T15:01:27;18.58;;;10.57;;
83558;SDS011;73527;47.882;7.718;2024-03-08T15:03:55;18.65;;;11.65;;
83558;SDS011;73527;47.882;7.718;2024-03-08T15:06:20;16.70;;;10.30;;
83558;SDS011;73527;47.882;7.718;2024-03-08T15:08:47;17.48;;;10.23;;
83558;SDS011;73527;47.882;7.718;2024-03-08T15:11:13;18.85;;;10.57;;
83558;SDS011;73527;47.882;7.718;2024-03-08T15:13:50;14.70;;;10.07;;
83558;SDS011;73527;47.882;7.718;2024-03-08T15:16:19;18.42;;;10.75;;
83558;SDS011;73527;47.882;7.718;2024-03-08T15:18:48;16.88;;;10.77;;
83558;SDS011;73527;47.882;7.718;2024-03-08T15:21:15;15.73;;;9.90;;